ADDS METAR Data INFO
IDs: Format: Raw Decoded Include TAF

Data at: 0747 UTC 23 Jul 2018

KHND 230656Z AUTO 34004KT 10SM BKN120 33/13 A3004 RMK AO2 SLP136 T03330128 $
KHND 230456Z AUTO 18007KT 10SM CLR 34/13 A3002 RMK AO2 SLP129 T03440133 $
KHND 230356Z AUTO 13004KT 10SM CLR 36/12 A3000 RMK AO2 SLP124 T03560122 $
KHND 230256Z 03005KT 10SM CLR 37/12 A2999 RMK AO2 SLP121 T03670122 55002 $
KHND 230156Z 05008KT 10SM CLR 38/12 A2997 RMK AO2 SLP115 T03780122 $
KHND 230056Z VRB05KT 10SM CLR 39/11 A2997 RMK AO2 SLP116 T03890111 $
KHND 222356Z VRB04KT 10SM CLR 39/10 A2999 RMK AO2 SLP124 T03890100 10394 20328 56022 $
KHND 222256Z VRB05KT 10SM CLR 38/13 A3001 RMK AO2 SLP129 T03830133 $
KHND 222156Z 02006KT 10SM CLR 38/13 A3003 RMK AO2 SLP138 T03780128 $
KHND 222056Z 00000KT 10SM CLR 37/12 A3006 RMK AO2 SLP149 T03670122 56019 $
KHND 221956Z 00000KT 10SM CLR 36/13 A3008 RMK AO2 SLP155 T03560128 $
KHND 221856Z VRB04KT 10SM CLR 34/13 A3010 RMK AO2 SLP164 T03440133 $
KHND 221756Z 00000KT 10SM CLR 33/14 A3012 RMK AO2 SLP170 T03330139 10333 20228 58000 $
KHND 221656Z 00000KT 10SM CLR 32/15 A3012 RMK AO2 SLP172 T03170150 $
KHND 221556Z 00000KT 10SM CLR 29/16 A3013 RMK AO2 SLP173 T02940156 $
KHND 221456Z 00000KT 10SM CLR 28/15 A3012 RMK AO2 SLP174 T02780150 51012 $
KHND 221356Z 17003KT 10SM CLR 25/16 A3011 RMK AO2 SLP172 T02500156 $
KHND 221256Z 17005KT 10SM CLR 23/15 A3010 RMK AO2 SLP168 T02280150 $
KHND 221156Z AUTO 16007KT 10SM CLR 23/15 A3008 RMK AO2 SLP162 T02330150 10267 20228 53006 $
KHND 221056Z AUTO 16007KT 10SM CLR 23/16 A3007 RMK AO2 SLP159 T02330156 $
KHND 220956Z AUTO 15005KT 10SM CLR 24/16 A3006 RMK AO2 SLP156 T02390161 $
KHND 220856Z AUTO 17004KT 10SM CLR 24/17 A3006 RMK AO2 SLP154 T02440172 58001 $
KHND 220756Z AUTO 15005KT 10SM CLR 25/17 A3006 RMK AO2 SLP154 T02500172 403610250 $
KHND 220656Z AUTO 16004KT 10SM CLR 25/17 A3007 RMK AO2 SLP159 T02500172 $
KHND 220556Z AUTO 00000KT 10SM CLR 27/17 A3006 RMK AO2 SLP153 60000 T02670172 10300 20261 51012 $
KHND 220456Z AUTO 03007KT 10SM SCT110 27/17 A3006 RMK AO2 SLP148 T02720167 $
KHND 220356Z AUTO 15004KT 10SM FEW110 29/14 A3004 RMK AO2 RAE00 SLP141 P0000 T02890144 $
KHND 220256Z 17009KT 10SM -RA FEW065 SCT080 SCT110 29/15 A3003 RMK AO2 RAB49 SLP138 P0000 60000 T02890150 55002 $
KHND 220156Z 00000KT 10SM FEW090 29/16 A3002 RMK AO2 SLP138 T02890161 $
KHND 220056Z 04005KT 10SM CLR 29/16 A3002 RMK AO2 SLP136 T02890161 $
KHND 212356Z 04008KT 10SM CLR 31/16 A3004 RMK AO2 SLP142 60000 T03060161 10328 20278 58005 $
KHND 212256Z 17005KT 10SM FEW060 OVC110 30/14 A3005 RMK AO2 RAB33E56 SLP148 P0000 T03000144 $
KHND 212156Z 13011G21KT 10SM FEW050 SCT075 BKN110 28/16 A3008 RMK AO2 PK WND 15029/2136 LTG DSNT E SLP158 T02830161 $
KHND 212056Z 18022G26KT 10SM BKN100 31/14 A3005 RMK AO2 PK WND 19026/2053 SLP146 T03110139 51004 $
KHND 211956Z 18021G28KT 10SM CLR 32/12 A3005 RMK AO2 PK WND 17039/1910 SLP144 T03170122 $